createdAt,value
2019-01-13T00:02:01.039Z,7.50
2019-01-13T00:04:29.883Z,9.00
2019-01-13T00:06:58.947Z,7.27
2019-01-13T00:09:27.695Z,6.97
2019-01-13T00:11:56.552Z,6.53
2019-01-13T00:14:26.811Z,7.47
2019-01-13T00:16:54.134Z,7.57
2019-01-13T00:19:22.921Z,7.77
2019-01-13T00:21:51.732Z,8.73
2019-01-13T00:24:20.522Z,7.90
2019-01-13T00:26:49.311Z,8.97
2019-01-13T00:29:18.231Z,7.33
2019-01-13T00:31:47.016Z,7.43
2019-01-13T00:34:15.822Z,7.53
2019-01-13T00:36:44.603Z,7.40
2019-01-13T00:39:13.403Z,8.27
2019-01-13T00:41:42.189Z,7.93
2019-01-13T00:44:11.006Z,8.13
2019-01-13T00:46:39.787Z,6.80
2019-01-13T00:49:08.571Z,6.87
2019-01-13T00:51:37.446Z,8.07
2019-01-13T00:54:06.294Z,8.27
2019-01-13T00:56:35.083Z,7.37
2019-01-13T00:59:03.911Z,8.57
2019-01-13T01:01:32.802Z,7.80
2019-01-13T01:04:01.621Z,8.67
2019-01-13T01:06:30.547Z,9.10
2019-01-13T01:08:59.693Z,8.77
2019-01-13T01:11:28.581Z,9.20
2019-01-13T01:13:57.446Z,9.87
2019-01-13T01:16:26.259Z,10.53
2019-01-13T01:18:55.079Z,9.33
2019-01-13T01:21:23.891Z,9.10
2019-01-13T01:23:52.727Z,9.03
2019-01-13T01:26:21.512Z,10.13
2019-01-13T01:28:50.363Z,10.13
2019-01-13T01:31:19.171Z,9.10
2019-01-13T01:33:47.973Z,9.80
2019-01-13T01:36:16.812Z,8.73
2019-01-13T01:38:45.657Z,10.20
2019-01-13T01:41:14.466Z,10.20
2019-01-13T01:43:43.354Z,10.40
2019-01-13T01:46:12.143Z,10.37
2019-01-13T01:48:40.983Z,9.63
2019-01-13T01:51:09.811Z,10.97
2019-01-13T01:53:38.599Z,11.67
2019-01-13T01:56:07.409Z,11.53
2019-01-13T01:58:36.194Z,12.00
2019-01-13T02:01:05.039Z,12.57
2019-01-13T02:03:33.845Z,11.93
2019-01-13T02:06:03.430Z,12.63
2019-01-13T02:08:32.313Z,14.37
2019-01-13T02:11:01.207Z,12.63
2019-01-13T02:13:30.006Z,12.83
2019-01-13T02:15:58.867Z,13.50
2019-01-13T02:18:27.732Z,12.67
2019-01-13T02:20:56.515Z,11.37
2019-01-13T02:23:25.371Z,12.03
2019-01-13T02:25:54.227Z,11.87
2019-01-13T02:28:23.042Z,13.63
2019-01-13T02:30:51.917Z,12.23
2019-01-13T02:33:20.698Z,13.00
2019-01-13T02:35:49.549Z,12.47
2019-01-13T02:38:18.650Z,11.90
2019-01-13T02:40:47.449Z,12.00
2019-01-13T02:43:16.327Z,11.33
2019-01-13T02:45:45.113Z,13.07
2019-01-13T02:48:13.949Z,12.13
2019-01-13T02:50:42.744Z,12.17
2019-01-13T02:53:11.549Z,12.27
2019-01-13T02:55:40.389Z,12.47
2019-01-13T02:58:09.179Z,12.30
2019-01-13T03:00:38.000Z,13.97
2019-01-13T03:03:08.046Z,15.67
2019-01-13T03:05:37.736Z,14.93
2019-01-13T03:08:06.550Z,14.10
2019-01-13T03:10:35.335Z,14.13
2019-01-13T03:13:04.173Z,13.47
2019-01-13T03:15:33.056Z,12.53
2019-01-13T03:18:01.831Z,12.03
2019-01-13T03:20:30.651Z,13.83
2019-01-13T03:22:59.436Z,12.90
2019-01-13T03:25:28.232Z,13.10
2019-01-13T03:27:57.083Z,13.30
2019-01-13T03:30:25.956Z,14.87
2019-01-13T03:32:55.652Z,15.13
2019-01-13T03:35:24.630Z,14.30
2019-01-13T03:37:53.407Z,15.13
2019-01-13T03:40:24.070Z,15.30
2019-01-13T03:42:52.933Z,16.30
2019-01-13T03:45:21.803Z,16.83
2019-01-13T03:47:50.581Z,16.97
2019-01-13T03:50:21.109Z,16.90
2019-01-13T03:52:53.262Z,17.57
2019-01-13T03:55:19.862Z,18.33
2019-01-13T03:57:48.659Z,18.17
2019-01-13T04:00:20.208Z,18.47
2019-01-13T04:02:49.601Z,19.27
2019-01-13T04:05:18.390Z,16.97
2019-01-13T04:07:47.178Z,18.67
2019-01-13T04:10:16.290Z,16.60
2019-01-13T04:12:45.206Z,18.20
2019-01-13T04:15:21.928Z,17.70
2019-01-13T04:17:50.715Z,17.40
2019-01-13T04:20:19.525Z,17.57
2019-01-13T04:22:48.342Z,18.03
2019-01-13T04:25:17.267Z,17.90
2019-01-13T04:27:46.146Z,18.77
2019-01-13T04:30:14.957Z,19.20
2019-01-13T04:32:43.748Z,18.27
2019-01-13T04:35:12.568Z,17.80
2019-01-13T04:37:41.346Z,17.10
2019-01-13T04:40:10.250Z,17.20
2019-01-13T04:42:39.053Z,18.33
2019-01-13T04:45:07.841Z,18.13
2019-01-13T04:47:36.686Z,20.33
2019-01-13T04:50:05.765Z,21.07
2019-01-13T04:52:34.570Z,22.67
2019-01-13T04:55:03.385Z,22.83
2019-01-13T04:57:32.276Z,23.73
2019-01-13T05:00:01.161Z,23.70
2019-01-13T05:02:30.727Z,21.93
2019-01-13T05:04:59.538Z,21.20
2019-01-13T05:07:28.331Z,23.13
2019-01-13T05:09:57.187Z,20.73
2019-01-13T05:12:27.809Z,21.43
2019-01-13T05:14:54.860Z,20.20
2019-01-13T05:17:23.707Z,19.13
2019-01-13T05:19:52.561Z,19.73
2019-01-13T05:22:21.450Z,20.47
2019-01-13T05:24:50.318Z,21.03
2019-01-13T05:27:19.087Z,20.80
2019-01-13T05:29:47.927Z,20.53
2019-01-13T05:32:16.754Z,19.00
2019-01-13T05:34:45.598Z,19.77
2019-01-13T05:37:14.438Z,19.80
2019-01-13T05:39:43.297Z,18.43
2019-01-13T05:42:12.139Z,16.97
2019-01-13T05:44:41.024Z,15.57
2019-01-13T05:47:09.891Z,16.23
2019-01-13T05:49:38.779Z,14.63
2019-01-13T05:52:07.575Z,13.33
2019-01-13T05:54:36.395Z,13.03
2019-01-13T05:57:05.187Z,11.20
2019-01-13T05:59:34.038Z,11.20
2019-01-13T06:02:02.955Z,10.60
2019-01-13T06:04:31.775Z,9.20
2019-01-13T06:07:00.662Z,9.83
2019-01-13T06:09:29.448Z,8.13
2019-01-13T06:11:58.331Z,7.70
2019-01-13T06:14:27.120Z,6.77
2019-01-13T06:16:55.887Z,6.27
2019-01-13T06:19:24.935Z,5.90
2019-01-13T06:21:53.723Z,5.50
2019-01-13T06:24:22.511Z,5.43
2019-01-13T06:26:51.444Z,4.00
2019-01-13T06:29:20.263Z,4.50
2019-01-13T06:31:56.110Z,3.83
2019-01-13T06:34:18.051Z,4.50
2019-01-13T06:36:46.844Z,3.90
2019-01-13T06:39:15.612Z,4.20
2019-01-13T06:41:44.483Z,3.37
2019-01-13T06:44:13.316Z,3.43
2019-01-13T06:46:42.104Z,3.40
2019-01-13T06:49:10.960Z,4.33
2019-01-13T06:51:39.759Z,4.23
2019-01-13T06:54:08.619Z,4.00
2019-01-13T06:56:37.506Z,4.10
2019-01-13T06:59:06.306Z,4.40
2019-01-13T07:01:35.156Z,4.20
2019-01-13T07:04:06.174Z,3.70
2019-01-13T07:06:34.967Z,3.77
2019-01-13T07:09:04.366Z,4.83
2019-01-13T07:11:33.274Z,4.33
2019-01-13T07:14:02.139Z,5.10
2019-01-13T07:16:30.995Z,3.70
2019-01-13T07:18:59.785Z,4.80
2019-01-13T07:21:28.671Z,4.63
2019-01-13T07:23:57.464Z,5.20
2019-01-13T07:26:26.253Z,4.73
2019-01-13T07:28:55.120Z,5.00
2019-01-13T07:31:23.919Z,4.50
2019-01-13T07:33:52.711Z,5.37
2019-01-13T07:36:21.530Z,5.00
2019-01-13T07:38:50.330Z,5.53
2019-01-13T07:41:19.138Z,6.17
2019-01-13T07:43:47.930Z,5.43
2019-01-13T07:46:16.711Z,5.93
2019-01-13T07:48:45.520Z,7.77
2019-01-13T07:51:14.363Z,6.00
2019-01-13T07:53:43.146Z,6.10
2019-01-13T07:56:12.511Z,6.63
2019-01-13T07:58:41.808Z,7.03
2019-01-13T08:01:10.583Z,6.60
2019-01-13T08:03:39.371Z,6.60
2019-01-13T08:06:08.219Z,6.70
2019-01-13T08:08:37.071Z,5.80
2019-01-13T08:11:05.870Z,6.00
2019-01-13T08:13:34.643Z,6.27
2019-01-13T08:16:03.418Z,6.67
2019-01-13T08:18:33.149Z,6.50
2019-01-13T08:21:02.059Z,6.57
2019-01-13T08:23:30.906Z,6.17
2019-01-13T08:25:59.667Z,7.17
2019-01-13T08:28:28.558Z,6.23
2019-01-13T08:30:57.377Z,6.42
2019-01-13T08:33:26.201Z,6.40
2019-01-13T08:35:55.039Z,6.17
2019-01-13T08:38:23.919Z,6.33
2019-01-13T08:40:52.713Z,6.00
2019-01-13T08:43:21.505Z,6.27
2019-01-13T08:45:50.615Z,5.87
2019-01-13T08:48:19.827Z,6.27
2019-01-13T08:50:49.344Z,5.77
2019-01-13T08:53:18.123Z,5.00
2019-01-13T08:55:46.912Z,5.27
2019-01-13T08:58:15.701Z,5.17
2019-01-13T09:00:45.363Z,5.17
2019-01-13T09:03:14.243Z,5.37
2019-01-13T09:05:43.084Z,5.10
2019-01-13T09:08:11.986Z,6.03
2019-01-13T09:10:40.831Z,5.13
2019-01-13T09:13:11.794Z,5.47
2019-01-13T09:15:40.602Z,5.73
2019-01-13T09:18:09.405Z,5.27
2019-01-13T09:20:38.236Z,5.60
2019-01-13T09:23:07.108Z,5.63
2019-01-13T09:25:37.058Z,4.93
2019-01-13T09:28:07.007Z,5.27
2019-01-13T09:30:35.783Z,4.60
2019-01-13T09:33:05.637Z,5.43
2019-01-13T09:35:35.199Z,5.33
2019-01-13T09:38:06.677Z,5.50
2019-01-13T09:40:34.527Z,4.63
2019-01-13T09:43:03.643Z,6.03
2019-01-13T09:45:32.556Z,5.53
2019-01-13T09:48:01.400Z,5.20
2019-01-13T09:50:30.255Z,5.63
2019-01-13T09:52:59.053Z,5.00
2019-01-13T09:55:27.865Z,4.77
2019-01-13T09:57:56.659Z,4.23
2019-01-13T10:00:31.291Z,4.90
2019-01-13T10:03:00.144Z,4.17
2019-01-13T10:05:28.983Z,3.80
2019-01-13T10:07:57.827Z,3.87
2019-01-13T10:10:26.696Z,3.67
2019-01-13T10:12:55.515Z,4.47
2019-01-13T10:15:24.340Z,4.33
2019-01-13T10:17:53.120Z,4.80
2019-01-13T10:20:22.038Z,4.57
2019-01-13T10:22:50.843Z,3.57
2019-01-13T10:25:19.637Z,4.23
2019-01-13T10:27:48.525Z,4.07
2019-01-13T10:30:20.815Z,3.63
2019-01-13T10:32:54.706Z,3.80
2019-01-13T10:35:18.426Z,3.97
2019-01-13T10:37:47.271Z,3.50
2019-01-13T10:40:17.986Z,3.57
2019-01-13T10:42:46.836Z,3.50
2019-01-13T10:45:15.723Z,3.53
2019-01-13T10:47:44.498Z,3.50
2019-01-13T10:50:18.113Z,3.70
2019-01-13T10:52:46.876Z,3.10
2019-01-13T10:55:15.995Z,4.13
2019-01-13T10:57:44.863Z,3.53
2019-01-13T11:00:17.476Z,3.00
2019-01-13T11:02:46.278Z,3.67
2019-01-13T11:05:15.100Z,3.10
2019-01-13T11:07:43.952Z,3.70
2019-01-13T11:10:13.658Z,3.67
2019-01-13T11:12:42.514Z,3.83
2019-01-13T11:15:11.451Z,3.53
2019-01-13T11:17:40.235Z,3.90
2019-01-13T11:20:15.576Z,3.67
2019-01-13T11:22:44.415Z,4.03
2019-01-13T11:25:13.316Z,4.07
2019-01-13T11:27:42.211Z,4.13
2019-01-13T11:30:13.899Z,4.10
2019-01-13T11:32:42.800Z,4.37
2019-01-13T11:35:11.977Z,4.73
2019-01-13T11:37:40.751Z,4.37
2019-01-13T11:40:11.404Z,4.93
2019-01-13T11:42:40.194Z,4.50
2019-01-13T11:45:09.696Z,5.70
2019-01-13T11:47:38.496Z,5.10
2019-01-13T11:50:10.441Z,5.63
2019-01-13T11:52:39.311Z,4.90
2019-01-13T11:55:09.638Z,5.53
2019-01-13T11:57:38.461Z,5.83
2019-01-13T12:00:12.331Z,4.97
2019-01-13T12:02:41.267Z,6.13
2019-01-13T12:05:10.053Z,4.67
2019-01-13T12:07:38.839Z,5.40
2019-01-13T12:10:09.967Z,4.27
2019-01-13T12:12:38.782Z,4.97
2019-01-13T12:15:10.295Z,5.70
2019-01-13T12:17:39.073Z,4.63
2019-01-13T12:20:09.939Z,5.60
2019-01-13T12:22:38.799Z,5.17
2019-01-13T12:25:08.838Z,6.33
2019-01-13T12:27:37.648Z,5.53
2019-01-13T12:30:08.147Z,6.50
2019-01-13T12:32:36.947Z,5.67
2019-01-13T12:35:05.831Z,6.10
2019-01-13T12:37:34.628Z,6.53
2019-01-13T12:40:03.463Z,6.37
2019-01-13T12:42:32.291Z,6.07
2019-01-13T12:45:01.100Z,7.23
2019-01-13T12:47:29.991Z,6.97
2019-01-13T12:49:58.849Z,7.97
2019-01-13T12:52:27.698Z,8.10
2019-01-13T12:54:56.528Z,6.03
2019-01-13T12:57:25.312Z,7.43
2019-01-13T12:59:54.176Z,8.67
2019-01-13T13:02:23.026Z,7.13
2019-01-13T13:04:51.834Z,7.17
2019-01-13T13:07:20.739Z,6.37
2019-01-13T13:09:49.617Z,7.07
2019-01-13T13:12:18.489Z,8.10
2019-01-13T13:14:47.331Z,6.40
2019-01-13T13:17:16.124Z,6.77
2019-01-13T13:19:44.945Z,5.83
2019-01-13T13:22:13.733Z,5.57
2019-01-13T13:24:42.576Z,5.53
2019-01-13T13:27:11.495Z,5.90
2019-01-13T13:29:40.346Z,5.60
2019-01-13T13:32:09.155Z,6.13
2019-01-13T13:34:37.923Z,6.93
2019-01-13T13:37:06.728Z,6.10
2019-01-13T13:39:35.506Z,5.23
2019-01-13T13:42:04.295Z,4.80
2019-01-13T13:44:33.133Z,4.90
2019-01-13T13:47:01.976Z,5.23
2019-01-13T13:49:30.959Z,4.73
2019-01-13T13:51:59.760Z,4.50
2019-01-13T13:54:28.657Z,4.87
2019-01-13T13:56:57.451Z,4.97
2019-01-13T13:59:26.291Z,4.63
2019-01-13T14:01:55.088Z,5.43
2019-01-13T14:04:23.907Z,4.60
2019-01-13T14:06:52.697Z,4.50
2019-01-13T14:09:21.567Z,5.17
2019-01-13T14:11:50.344Z,5.30
2019-01-13T14:14:19.147Z,5.13
2019-01-13T14:16:48.039Z,5.30
2019-01-13T14:19:16.839Z,5.20
2019-01-13T14:21:45.633Z,5.10
2019-01-13T14:24:14.505Z,6.73
2019-01-13T14:26:43.275Z,5.90
2019-01-13T14:29:12.222Z,5.00
2019-01-13T14:31:41.092Z,4.43
2019-01-13T14:34:09.851Z,4.73
2019-01-13T14:36:38.661Z,5.10
2019-01-13T14:39:08.384Z,5.47
2019-01-13T14:41:37.167Z,5.30
2019-01-13T14:44:06.027Z,5.13
2019-01-13T14:46:34.941Z,4.80
2019-01-13T14:49:03.547Z,4.90
2019-01-13T14:51:32.375Z,5.30
2019-01-13T14:54:01.231Z,5.00
2019-01-13T14:56:30.086Z,5.03
2019-01-13T14:59:00.047Z,4.03
2019-01-13T15:01:28.858Z,4.90
2019-01-13T15:04:00.018Z,5.00
2019-01-13T15:06:26.592Z,4.87
2019-01-13T15:08:55.623Z,5.53
2019-01-13T15:11:24.451Z,5.33
2019-01-13T15:13:53.291Z,5.73
2019-01-13T15:16:22.120Z,5.27
2019-01-13T15:18:50.968Z,4.87
2019-01-13T15:21:19.763Z,5.73
2019-01-13T15:23:48.682Z,5.23
2019-01-13T15:26:17.526Z,4.87
2019-01-13T15:28:46.420Z,4.77
2019-01-13T15:31:15.315Z,5.13
2019-01-13T15:33:44.151Z,4.30
2019-01-13T15:36:13.027Z,6.03
2019-01-13T15:38:41.833Z,4.50
2019-01-13T15:41:10.707Z,5.13
2019-01-13T15:43:39.566Z,5.47
2019-01-13T15:46:08.360Z,4.50
2019-01-13T15:48:37.172Z,4.87
2019-01-13T15:51:05.971Z,5.67
2019-01-13T15:53:34.818Z,5.33
2019-01-13T15:56:03.646Z,5.07
2019-01-13T15:58:32.566Z,4.73
2019-01-13T16:01:01.495Z,5.27
2019-01-13T16:03:30.380Z,4.73
2019-01-13T16:05:59.219Z,4.17
2019-01-13T16:08:28.067Z,4.50
2019-01-13T16:10:56.957Z,4.37
2019-01-13T16:13:25.753Z,3.97
2019-01-13T16:15:54.996Z,4.93
2019-01-13T16:18:23.859Z,4.87
2019-01-13T16:20:52.691Z,5.20
2019-01-13T16:23:21.543Z,4.27
2019-01-13T16:25:50.369Z,5.23
2019-01-13T16:28:19.218Z,4.73
2019-01-13T16:30:48.012Z,4.83
2019-01-13T16:33:16.848Z,5.43
2019-01-13T16:35:45.706Z,4.33
2019-01-13T16:38:14.660Z,4.00
2019-01-13T16:40:47.490Z,4.27
2019-01-13T16:43:16.418Z,3.50
2019-01-13T16:45:45.380Z,6.87
2019-01-13T16:48:19.711Z,6.83
2019-01-13T16:50:49.553Z,5.40
2019-01-13T16:53:21.151Z,4.43
2019-01-13T16:55:50.004Z,5.07
2019-01-13T16:58:18.902Z,5.00
2019-01-13T17:00:47.772Z,5.20
2019-01-13T17:03:16.677Z,3.83
2019-01-13T17:05:45.847Z,4.20
2019-01-13T17:08:14.656Z,4.07
2019-01-13T17:10:43.453Z,3.40
2019-01-13T17:13:12.255Z,2.90
2019-01-13T17:15:41.067Z,2.47
2019-01-13T17:18:09.892Z,2.87
2019-01-13T17:20:38.706Z,2.20
2019-01-13T17:23:07.610Z,2.43
2019-01-13T17:25:36.524Z,2.07
2019-01-13T17:28:05.375Z,1.97
2019-01-13T17:30:35.354Z,1.97
2019-01-13T17:33:04.467Z,2.80
2019-01-13T17:35:33.291Z,2.73
2019-01-13T17:38:02.164Z,3.53
2019-01-13T17:40:30.969Z,2.40
2019-01-13T17:42:59.763Z,2.83
2019-01-13T17:45:31.256Z,2.83
2019-01-13T17:48:00.102Z,2.57
2019-01-13T17:50:28.944Z,2.30
2019-01-13T17:52:57.751Z,2.20
2019-01-13T17:55:27.743Z,3.13
2019-01-13T17:57:56.591Z,3.20
2019-01-13T18:00:34.334Z,2.83
2019-01-13T18:03:03.496Z,3.13
2019-01-13T18:05:32.332Z,3.30
2019-01-13T18:08:01.131Z,4.00
2019-01-13T18:10:29.996Z,4.10
2019-01-13T18:13:00.247Z,4.43
2019-01-13T18:15:29.219Z,5.37
2019-01-13T18:17:58.058Z,4.20
2019-01-13T18:20:26.836Z,3.30
2019-01-13T18:22:55.636Z,4.57
2019-01-13T18:25:24.456Z,4.43
2019-01-13T18:27:53.389Z,3.87
2019-01-13T18:30:23.351Z,4.90
2019-01-13T18:32:52.135Z,4.53
2019-01-13T18:35:21.487Z,4.40
2019-01-13T18:37:50.260Z,5.47
2019-01-13T18:40:19.383Z,5.17
2019-01-13T18:42:48.200Z,5.97
2019-01-13T18:45:17.022Z,5.50
2019-01-13T18:47:45.855Z,5.00
2019-01-13T18:50:16.547Z,5.93
2019-01-13T18:52:50.094Z,5.83
2019-01-13T18:55:18.939Z,5.40
2019-01-13T18:57:47.723Z,5.40
2019-01-13T19:00:18.747Z,4.90
2019-01-13T19:02:47.627Z,5.57
2019-01-13T19:05:18.364Z,4.03
2019-01-13T19:07:47.152Z,5.00
2019-01-13T19:10:23.610Z,4.50
2019-01-13T19:12:57.076Z,5.03
2019-01-13T19:15:25.864Z,4.63
2019-01-13T19:17:56.236Z,4.97
2019-01-13T19:20:28.296Z,5.60
2019-01-13T19:23:01.372Z,5.20
2019-01-13T19:25:32.220Z,6.40
2019-01-13T19:28:01.011Z,6.63
2019-01-13T19:30:29.854Z,5.03
2019-01-13T19:32:58.633Z,4.80
2019-01-13T19:35:27.436Z,5.13
2019-01-13T19:37:56.342Z,4.60
2019-01-13T19:40:25.239Z,5.97
2019-01-13T19:42:54.035Z,7.27
2019-01-13T19:45:22.840Z,7.50
2019-01-13T19:47:51.668Z,5.87
2019-01-13T19:50:22.671Z,5.43
2019-01-13T19:52:51.495Z,5.63
2019-01-13T19:55:20.305Z,6.90
2019-01-13T19:57:49.095Z,5.53
2019-01-13T20:00:20.967Z,5.93
2019-01-13T20:02:49.570Z,6.93
2019-01-13T20:05:18.350Z,8.30
2019-01-13T20:07:47.240Z,5.13
2019-01-13T20:10:16.050Z,6.17
2019-01-13T20:12:44.863Z,6.33
2019-01-13T20:15:14.132Z,7.50
2019-01-13T20:17:43.604Z,5.93
2019-01-13T20:20:13.735Z,6.40
2019-01-13T20:22:42.523Z,6.00
2019-01-13T20:25:12.123Z,6.03
2019-01-13T20:27:40.934Z,6.40
2019-01-13T20:30:13.810Z,6.23
2019-01-13T20:32:43.666Z,6.73
2019-01-13T20:35:18.983Z,6.67
2019-01-13T20:37:41.343Z,5.77
2019-01-13T20:40:10.276Z,6.47
2019-01-13T20:42:39.115Z,5.80
2019-01-13T20:45:12.448Z,5.77
2019-01-13T20:47:41.236Z,5.23
2019-01-13T20:50:11.707Z,6.27
2019-01-13T20:52:40.595Z,6.20
2019-01-13T20:55:09.874Z,6.03
2019-01-13T20:57:38.721Z,7.20
2019-01-13T21:00:10.647Z,6.43
2019-01-13T21:02:39.924Z,5.97
2019-01-13T21:05:08.695Z,6.17
2019-01-13T21:07:37.499Z,5.57
2019-01-13T21:10:07.852Z,6.63
2019-01-13T21:12:36.634Z,5.73
2019-01-13T21:15:07.301Z,6.10
2019-01-13T21:17:36.382Z,5.20
2019-01-13T21:20:06.573Z,5.60
2019-01-13T21:22:35.698Z,5.87
2019-01-13T21:25:05.715Z,6.40
2019-01-13T21:27:34.495Z,6.40
2019-01-13T21:30:03.531Z,5.70
2019-01-13T21:32:32.471Z,5.83
2019-01-13T21:35:01.432Z,5.47
2019-01-13T21:37:30.096Z,6.07
2019-01-13T21:39:58.964Z,5.07
2019-01-13T21:42:27.750Z,6.20
2019-01-13T21:44:56.567Z,5.60
2019-01-13T21:47:25.369Z,3.80
2019-01-13T21:49:54.226Z,2.80
2019-01-13T21:52:23.083Z,3.20
2019-01-13T21:54:51.916Z,2.43
2019-01-13T21:57:21.444Z,3.47
2019-01-13T21:59:50.251Z,4.23
2019-01-13T22:02:19.054Z,4.40
2019-01-13T22:04:47.843Z,3.93
2019-01-13T22:07:16.623Z,5.53
2019-01-13T22:09:45.428Z,3.83
2019-01-13T22:12:20.980Z,4.83
2019-01-13T22:14:49.815Z,3.70
2019-01-13T22:17:18.630Z,4.93
2019-01-13T22:19:47.460Z,5.13
2019-01-13T22:22:16.231Z,5.23
2019-01-13T22:24:45.033Z,4.57
2019-01-13T22:27:13.816Z,5.87
2019-01-13T22:29:42.679Z,3.93
2019-01-13T22:32:11.463Z,4.00
2019-01-13T22:37:15.335Z,3.17
2019-01-13T22:39:44.140Z,3.50
2019-01-13T22:42:12.928Z,2.43
2019-01-13T22:44:41.705Z,2.73
2019-01-13T22:47:10.489Z,1.97
2019-01-13T22:49:39.263Z,2.00
2019-01-13T22:52:08.101Z,2.40
2019-01-13T22:54:36.896Z,2.00
2019-01-13T22:57:05.743Z,2.53
2019-01-13T22:59:34.604Z,3.10
2019-01-13T23:02:03.423Z,3.40
2019-01-13T23:04:32.239Z,3.00
2019-01-13T23:07:01.025Z,3.63
2019-01-13T23:09:29.867Z,3.00
2019-01-13T23:11:58.767Z,3.70
2019-01-13T23:14:27.576Z,3.30
2019-01-13T23:16:56.358Z,2.63
2019-01-13T23:19:25.131Z,4.43
2019-01-13T23:21:54.036Z,3.40
2019-01-13T23:24:22.935Z,2.77
2019-01-13T23:26:51.768Z,3.33
2019-01-13T23:29:20.586Z,3.70
2019-01-13T23:31:49.412Z,4.50
2019-01-13T23:34:18.183Z,3.70
2019-01-13T23:36:46.955Z,3.90
2019-01-13T23:39:15.755Z,4.43
2019-01-13T23:41:44.585Z,5.17
2019-01-13T23:44:13.431Z,4.33
2019-01-13T23:46:42.199Z,5.63
2019-01-13T23:49:10.995Z,5.43
2019-01-13T23:51:39.774Z,5.23
2019-01-13T23:54:08.603Z,4.77
2019-01-13T23:56:37.461Z,5.80
2019-01-13T23:59:06.239Z,5.10
